createdAt,value
2023-03-06T00:00:34.278Z,85.3
2023-03-06T00:01:50.553Z,85.3
2023-03-06T00:03:06.861Z,85.2
2023-03-06T00:04:22.169Z,85.3
2023-03-06T00:05:38.468Z,85.3
2023-03-06T00:06:54.750Z,85.3
2023-03-06T00:08:11.053Z,85.3
2023-03-06T00:09:27.344Z,85.4
2023-03-06T00:10:43.644Z,85.3
2023-03-06T00:11:59.930Z,85.2
2023-03-06T00:13:16.228Z,85.6
2023-03-06T00:14:32.529Z,85.6
2023-03-06T00:15:48.823Z,85.6
2023-03-06T00:17:05.107Z,85.7
2023-03-06T00:18:21.398Z,85.2
2023-03-06T00:19:37.696Z,85.3
2023-03-06T00:20:53.020Z,85.4
2023-03-06T00:22:09.299Z,85.6
2023-03-06T00:23:25.609Z,85.4
2023-03-06T00:24:41.881Z,85.5
2023-03-06T00:25:58.179Z,85.6
2023-03-06T00:27:14.473Z,85.7
2023-03-06T00:28:30.772Z,85.7
2023-03-06T00:29:47.064Z,85.8
2023-03-06T00:31:03.354Z,85.7
2023-03-06T00:32:19.656Z,85.9
2023-03-06T00:33:35.961Z,85.9
2023-03-06T00:34:52.243Z,86.2
2023-03-06T00:36:08.530Z,86.3
2023-03-06T00:37:23.856Z,86.4
2023-03-06T00:38:40.143Z,86.4
2023-03-06T00:39:56.433Z,86.5
2023-03-06T00:41:12.726Z,86.2
2023-03-06T00:42:29.021Z,86.1
2023-03-06T00:43:45.319Z,86.1
2023-03-06T00:45:01.608Z,86
2023-03-06T00:46:17.910Z,86
2023-03-06T00:47:34.192Z,86
2023-03-06T00:48:50.492Z,86.2
2023-03-06T00:50:06.788Z,86.2
2023-03-06T00:51:23.072Z,86
2023-03-06T00:52:39.367Z,86.2
2023-03-06T00:53:54.674Z,86.3
2023-03-06T00:55:10.967Z,86.4
2023-03-06T00:56:27.274Z,86.4
2023-03-06T00:57:43.567Z,86.5
2023-03-06T00:58:59.870Z,86.6
2023-03-06T01:00:16.160Z,86.7
2023-03-06T01:01:32.455Z,86.8
2023-03-06T01:02:48.741Z,86.9
2023-03-06T01:04:05.028Z,87
2023-03-06T01:05:21.342Z,87.1
2023-03-06T01:06:37.635Z,87
2023-03-06T01:07:53.915Z,87
2023-03-06T01:09:10.205Z,87.2
2023-03-06T01:10:26.503Z,87.2
2023-03-06T01:11:41.813Z,87.2
2023-03-06T01:12:58.109Z,87.3
2023-03-06T01:14:14.395Z,87.3
2023-03-06T01:15:30.687Z,87.2
2023-03-06T01:16:46.994Z,87.3
2023-03-06T01:18:03.275Z,87.3
2023-03-06T01:19:19.577Z,87.3
2023-03-06T01:20:35.882Z,87.4
2023-03-06T01:21:52.158Z,87.3
2023-03-06T01:23:08.455Z,87.5
2023-03-06T01:24:24.746Z,87.4
2023-03-06T01:25:41.051Z,87.5
2023-03-06T01:26:57.340Z,87.3
2023-03-06T01:28:12.646Z,87.5
2023-03-06T01:29:28.951Z,87.5
2023-03-06T01:30:45.248Z,87.5
2023-03-06T01:32:01.527Z,87.5
2023-03-06T01:33:17.822Z,87.3
2023-03-06T01:34:34.121Z,87.3
2023-03-06T01:35:50.411Z,87.1
2023-03-06T01:37:06.715Z,87.1
2023-03-06T01:38:23.004Z,87.1
2023-03-06T01:39:39.295Z,87.1
2023-03-06T01:40:55.598Z,86.9
2023-03-06T01:42:11.890Z,86.9
2023-03-06T01:43:28.187Z,86.8
2023-03-06T01:44:43.490Z,86.7
2023-03-06T01:45:59.787Z,86.8
2023-03-06T01:47:16.083Z,86.6
2023-03-06T01:48:32.381Z,86.5
2023-03-06T01:49:48.661Z,86.5
2023-03-06T01:51:03.980Z,86.4
2023-03-06T01:52:20.280Z,86.3
2023-03-06T01:53:36.567Z,86.3
2023-03-06T01:54:52.869Z,86.3
2023-03-06T01:56:09.159Z,86.2
2023-03-06T01:57:25.446Z,86.3
2023-03-06T01:58:41.748Z,86.1
2023-03-06T01:59:58.040Z,86.1
2023-03-06T02:01:14.340Z,86.2
2023-03-06T02:02:30.627Z,86.1
2023-03-06T02:03:46.922Z,86.1
2023-03-06T02:05:03.214Z,86.1
2023-03-06T02:06:19.510Z,86.2
2023-03-06T02:07:34.829Z,86.2
2023-03-06T02:08:51.114Z,86.3
2023-03-06T02:10:07.411Z,86.3
2023-03-06T02:11:23.720Z,86.1
2023-03-06T02:12:39.990Z,86.2
2023-03-06T02:13:56.300Z,86.2
2023-03-06T02:15:12.586Z,86.3
2023-03-06T02:16:28.880Z,86.3
2023-03-06T02:17:45.182Z,86.2
2023-03-06T02:19:01.470Z,86.3
2023-03-06T02:20:17.766Z,86.3
2023-03-06T02:21:34.050Z,86.3
2023-03-06T02:22:50.353Z,86.5
2023-03-06T02:24:05.670Z,86.3
2023-03-06T02:25:21.953Z,86.2
2023-03-06T02:26:38.246Z,86.2
2023-03-06T02:27:54.539Z,86.1
2023-03-06T02:29:10.839Z,86.2
2023-03-06T02:30:27.143Z,86.2
2023-03-06T02:31:43.414Z,86.5
2023-03-06T02:32:59.717Z,86.5
2023-03-06T02:34:16.012Z,86.5
2023-03-06T02:35:32.309Z,86.5
2023-03-06T02:36:48.602Z,86.5
2023-03-06T02:38:04.886Z,86.5
2023-03-06T02:39:21.194Z,86.5
2023-03-06T02:40:36.505Z,86.5
2023-03-06T02:41:52.799Z,86.5
2023-03-06T02:43:09.091Z,86.5
2023-03-06T02:44:25.375Z,86.5
2023-03-06T02:45:41.661Z,86.5
2023-03-06T02:46:57.956Z,86.5
2023-03-06T02:48:14.251Z,86.7
2023-03-06T02:49:30.554Z,86.7
2023-03-06T02:50:46.850Z,86.7
2023-03-06T02:52:03.147Z,86.7
2023-03-06T02:53:19.442Z,86.5
2023-03-06T02:54:35.731Z,86.5
2023-03-06T02:55:52.018Z,86.5
2023-03-06T02:57:07.338Z,86.3
2023-03-06T02:58:23.628Z,86.5
2023-03-06T02:59:39.914Z,86.3
2023-03-06T03:00:56.215Z,86.5
2023-03-06T03:02:12.530Z,86.7
2023-03-06T03:03:28.803Z,86.5
2023-03-06T03:04:45.096Z,86.3
2023-03-06T03:06:01.404Z,86.3
2023-03-06T03:07:17.686Z,86.3
2023-03-06T03:08:33.981Z,86.2
2023-03-06T03:09:50.270Z,86.2
2023-03-06T03:11:06.583Z,86.2
2023-03-06T03:12:22.862Z,86.2
2023-03-06T03:13:39.154Z,86.3
2023-03-06T03:14:54.468Z,86.5
2023-03-06T03:16:10.756Z,86.4
2023-03-06T03:17:27.070Z,86.4
2023-03-06T03:18:43.352Z,86.5
2023-03-06T03:19:59.645Z,86.4
2023-03-06T03:21:15.951Z,86.4
2023-03-06T03:22:32.236Z,86.4
2023-03-06T03:23:48.528Z,86.4
2023-03-06T03:25:04.816Z,86.4
2023-03-06T03:26:21.130Z,86.2
2023-03-06T03:27:37.403Z,86.3
2023-03-06T03:28:53.697Z,86.4
2023-03-06T03:30:09.986Z,86.4
2023-03-06T03:31:25.326Z,86.4
2023-03-06T03:32:41.597Z,86.5
2023-03-06T03:33:57.909Z,86.6
2023-03-06T03:35:14.190Z,86.6
2023-03-06T03:36:30.496Z,86.7
2023-03-06T03:37:46.771Z,86.8
2023-03-06T03:39:03.062Z,86.8
2023-03-06T03:40:19.370Z,86.9
2023-03-06T03:41:35.652Z,86.8
2023-03-06T03:42:51.951Z,86.8
2023-03-06T03:44:08.257Z,86.9
2023-03-06T03:45:24.541Z,86.9
2023-03-06T03:46:40.844Z,86.8
2023-03-06T03:47:56.151Z,86.7
2023-03-06T03:49:12.442Z,86.6
2023-03-06T03:50:28.737Z,86.5
2023-03-06T03:51:45.039Z,86.5
2023-03-06T03:53:01.321Z,86.6
2023-03-06T03:54:17.608Z,86.4
2023-03-06T03:55:33.915Z,86.4
2023-03-06T03:56:50.208Z,86.3
2023-03-06T03:58:06.510Z,86.4
2023-03-06T03:59:22.798Z,86.4
2023-03-06T04:00:39.087Z,86.6
2023-03-06T04:01:55.371Z,86.4
2023-03-06T04:03:11.676Z,86.4
2023-03-06T04:04:26.990Z,86.4
2023-03-06T04:05:43.275Z,86.5
2023-03-06T04:06:59.585Z,86.6
2023-03-06T04:08:15.866Z,86.6
2023-03-06T04:09:32.160Z,86.7
2023-03-06T04:10:48.466Z,86.6
2023-03-06T04:12:04.751Z,86.5
2023-03-06T04:13:21.047Z,86.4
2023-03-06T04:14:37.330Z,86.5
2023-03-06T04:15:53.623Z,86.5
2023-03-06T04:17:09.929Z,86.4
2023-03-06T04:18:26.213Z,86.4
2023-03-06T04:19:42.507Z,86.5
2023-03-06T04:20:57.835Z,86.5
2023-03-06T04:22:14.118Z,86.6
2023-03-06T04:23:30.413Z,86.7
2023-03-06T04:24:46.709Z,86.7
2023-03-06T04:26:03.008Z,86.7
2023-03-06T04:27:19.307Z,86.7
2023-03-06T04:28:35.611Z,86.9
2023-03-06T04:29:51.891Z,87
2023-03-06T04:31:08.172Z,86.8
2023-03-06T04:32:24.477Z,86.7
2023-03-06T04:33:40.762Z,86.7
2023-03-06T04:34:57.071Z,86.8
2023-03-06T04:36:13.346Z,86.8
2023-03-06T04:37:28.667Z,86.8
2023-03-06T04:38:44.977Z,86.9
2023-03-06T04:40:01.265Z,87
2023-03-06T04:41:17.553Z,87
2023-03-06T04:42:33.845Z,87.3
2023-03-06T04:43:50.132Z,87.3
2023-03-06T04:45:06.435Z,87.4
2023-03-06T04:46:22.727Z,87.5
2023-03-06T04:47:39.008Z,87.4
2023-03-06T04:48:55.321Z,87.5
2023-03-06T04:50:11.610Z,87.5
2023-03-06T04:51:27.914Z,87.5
2023-03-06T04:52:44.210Z,87.6
2023-03-06T04:54:00.612Z,87.7
2023-03-06T04:55:16.902Z,87.7
2023-03-06T04:56:33.208Z,87.7
2023-03-06T04:57:49.497Z,87.7
2023-03-06T04:59:05.787Z,87.9
2023-03-06T05:00:22.072Z,87.9
2023-03-06T05:01:38.373Z,88.1
2023-03-06T05:02:54.666Z,88.1
2023-03-06T05:04:10.963Z,88.4
2023-03-06T05:05:27.260Z,88.5
2023-03-06T05:06:43.551Z,88.5
2023-03-06T05:07:59.839Z,88.7
2023-03-06T05:09:16.137Z,88.8
2023-03-06T05:10:31.458Z,88.9
2023-03-06T05:11:47.753Z,88.9
2023-03-06T05:13:04.040Z,89
2023-03-06T05:14:20.344Z,89.3
2023-03-06T05:15:36.571Z,89.2
2023-03-06T05:16:52.821Z,89.5
2023-03-06T05:18:09.057Z,89.4
2023-03-06T05:19:25.361Z,89.4
2023-03-06T05:20:41.609Z,89.5
2023-03-06T05:21:57.853Z,89.5
2023-03-06T05:23:14.107Z,89.4
2023-03-06T05:24:30.349Z,89.4
2023-03-06T05:25:46.578Z,89.3
2023-03-06T05:27:01.844Z,89.3
2023-03-06T05:28:18.088Z,89.3
2023-03-06T05:29:34.314Z,89.4
2023-03-06T05:30:50.556Z,89.5
2023-03-06T05:32:06.803Z,89.3
2023-03-06T05:33:23.034Z,89.3
2023-03-06T05:34:39.293Z,89.3
2023-03-06T05:35:55.524Z,89.4
2023-03-06T05:37:11.778Z,89.4
2023-03-06T05:38:28.005Z,89.5
2023-03-06T05:39:44.235Z,89.6
2023-03-06T05:41:00.472Z,89.6
2023-03-06T05:42:16.733Z,89.6
2023-03-06T05:43:31.977Z,89.7
2023-03-06T05:44:48.222Z,89.7
2023-03-06T05:46:04.464Z,89.9
2023-03-06T05:47:20.714Z,90
2023-03-06T05:48:36.945Z,90
2023-03-06T05:49:53.175Z,90
2023-03-06T05:51:09.433Z,90
2023-03-06T05:52:25.660Z,90.1
2023-03-06T05:53:41.904Z,90.2
2023-03-06T05:54:58.145Z,90.2
2023-03-06T05:56:14.399Z,90.1
2023-03-06T05:57:30.621Z,90
2023-03-06T05:58:46.856Z,90.1
2023-03-06T06:00:03.107Z,90.1
2023-03-06T06:01:18.380Z,90.1
2023-03-06T06:02:34.608Z,90.1
2023-03-06T06:03:50.863Z,90.1
2023-03-06T06:05:07.074Z,90.3
2023-03-06T06:06:22.357Z,90
2023-03-06T06:07:38.582Z,89.6
2023-03-06T06:08:54.835Z,89.4
2023-03-06T06:10:11.069Z,89.3
2023-03-06T06:11:27.301Z,89
2023-03-06T06:12:43.549Z,89
2023-03-06T06:13:59.797Z,88.9
2023-03-06T06:15:16.041Z,88.7
2023-03-06T06:16:32.284Z,88.7
2023-03-06T06:17:48.499Z,88.6
2023-03-06T06:19:04.751Z,88.5
2023-03-06T06:20:20.993Z,88.4
2023-03-06T06:21:37.226Z,88.3
2023-03-06T06:22:53.472Z,88.1
2023-03-06T06:24:08.735Z,88.1
2023-03-06T06:25:24.973Z,88.1
2023-03-06T06:26:41.197Z,87.9
2023-03-06T06:27:57.468Z,87.9
2023-03-06T06:29:13.680Z,87.8
2023-03-06T06:30:29.931Z,87.4
2023-03-06T06:31:46.163Z,87.2
2023-03-06T06:33:02.404Z,87.1
2023-03-06T06:34:18.656Z,87.3
2023-03-06T06:35:34.897Z,87.1
2023-03-06T06:36:51.141Z,87
2023-03-06T06:38:07.385Z,86.8
2023-03-06T06:39:23.628Z,86.5
2023-03-06T06:40:39.857Z,86.3
2023-03-06T06:41:55.097Z,86.2
2023-03-06T06:43:11.338Z,86
2023-03-06T06:44:27.578Z,85.7
2023-03-06T06:45:43.837Z,85.7
2023-03-06T06:47:00.077Z,85.7
2023-03-06T06:48:16.308Z,85.6
2023-03-06T06:49:32.541Z,85.5
2023-03-06T06:50:48.783Z,85.2
2023-03-06T06:52:05.031Z,84.9
2023-03-06T06:53:21.267Z,84.8
2023-03-06T06:54:37.518Z,84.7
2023-03-06T06:55:53.767Z,85
2023-03-06T06:57:10.009Z,84.7
2023-03-06T06:58:26.221Z,84.8
2023-03-06T06:59:41.479Z,84.8
2023-03-06T07:00:57.734Z,84.5
2023-03-06T07:02:13.959Z,84.3
2023-03-06T07:03:30.225Z,84.5
2023-03-06T07:04:46.442Z,84.6
2023-03-06T07:06:02.680Z,84.6
2023-03-06T07:07:18.918Z,84.9
2023-03-06T07:08:35.169Z,84.3
2023-03-06T07:09:51.424Z,84.1
2023-03-06T07:11:07.657Z,83.9
2023-03-06T07:12:23.903Z,84
2023-03-06T07:13:40.123Z,83.9
2023-03-06T07:14:56.369Z,83.7
2023-03-06T07:16:12.725Z,83.6
2023-03-06T07:17:28.974Z,83.3
2023-03-06T07:18:45.205Z,83.1
2023-03-06T07:20:01.469Z,82.9
2023-03-06T07:21:17.694Z,82.7
2023-03-06T07:22:33.920Z,82.9
2023-03-06T07:23:50.171Z,82.7
2023-03-06T07:25:06.420Z,82.5
2023-03-06T07:26:22.651Z,82.4
2023-03-06T07:27:38.894Z,82.2
2023-03-06T07:28:55.137Z,82
2023-03-06T07:30:11.374Z,81.9
2023-03-06T07:31:27.613Z,81.9
2023-03-06T07:32:42.858Z,82
2023-03-06T07:33:59.128Z,81.8
2023-03-06T07:35:15.337Z,81.8
2023-03-06T07:36:31.592Z,81.7
2023-03-06T07:37:47.836Z,81.7
2023-03-06T07:39:04.064Z,81.8
2023-03-06T07:40:20.307Z,81.9
2023-03-06T07:41:36.540Z,82.2
2023-03-06T07:42:52.789Z,82.2
2023-03-06T07:44:09.034Z,82.2
2023-03-06T07:45:25.269Z,82.2
2023-03-06T07:46:41.514Z,82.1
2023-03-06T07:47:57.744Z,82.2
2023-03-06T07:49:13.009Z,82.1
2023-03-06T07:50:29.241Z,82.3
2023-03-06T07:51:45.477Z,82.4
2023-03-06T07:53:01.731Z,82.1
2023-03-06T07:54:17.955Z,82
2023-03-06T07:55:34.207Z,81.8
2023-03-06T07:56:50.452Z,81.8
2023-03-06T07:58:06.686Z,81.8
2023-03-06T07:59:22.000Z,82.2
2023-03-06T08:00:39.171Z,82.3
2023-03-06T08:01:55.397Z,82.4
2023-03-06T08:03:11.643Z,82.3
2023-03-06T08:04:27.886Z,82.7
2023-03-06T08:05:43.155Z,82.9
2023-03-06T08:06:59.389Z,83.1
2023-03-06T08:08:15.612Z,83.3
2023-03-06T08:09:31.856Z,83.5
2023-03-06T08:10:48.109Z,83.5
2023-03-06T08:12:04.342Z,83.5
2023-03-06T08:13:20.578Z,83.8
2023-03-06T08:14:36.818Z,83.9
2023-03-06T08:15:53.063Z,84
2023-03-06T08:17:09.290Z,84.3
2023-03-06T08:18:25.538Z,84.3
2023-03-06T08:19:41.769Z,84.6
2023-03-06T08:20:58.012Z,84.9
2023-03-06T08:22:13.270Z,85.2
2023-03-06T08:23:29.507Z,85.2
2023-03-06T08:24:45.752Z,85.2
2023-03-06T08:26:01.986Z,85.5
2023-03-06T08:27:18.237Z,85.5
2023-03-06T08:28:34.472Z,85.9
2023-03-06T08:29:50.709Z,86.2
2023-03-06T08:31:06.945Z,86.5
2023-03-06T08:32:23.205Z,86.5
2023-03-06T08:33:39.441Z,85.9
2023-03-06T08:34:55.673Z,85.9
2023-03-06T08:36:11.000Z,85
2023-03-06T08:37:28.155Z,85.4
2023-03-06T08:38:44.514Z,85.4
2023-03-06T08:40:00.766Z,85.6
2023-03-06T08:41:16.999Z,86.1
2023-03-06T08:42:33.241Z,86.3
2023-03-06T08:43:49.479Z,86.8
2023-03-06T08:45:05.718Z,86.9
2023-03-06T08:46:21.961Z,86.9
2023-03-06T08:47:38.193Z,87
2023-03-06T08:48:54.431Z,87.5
2023-03-06T08:50:10.672Z,88
2023-03-06T08:51:26.914Z,88.2
2023-03-06T08:52:43.150Z,88.3
2023-03-06T08:53:59.400Z,88.5
2023-03-06T08:55:15.632Z,88.8
2023-03-06T08:56:31.870Z,89.2
2023-03-06T08:57:47.126Z,89.1
2023-03-06T08:59:03.368Z,89.5
2023-03-06T09:00:19.622Z,90
2023-03-06T09:01:35.859Z,90.1
2023-03-06T09:02:52.102Z,90.2
2023-03-06T09:04:08.344Z,90.1
2023-03-06T09:05:24.570Z,89.9
2023-03-06T09:06:40.808Z,89.9
2023-03-06T09:07:57.055Z,89.7
2023-03-06T09:09:13.287Z,89.8
2023-03-06T09:10:29.533Z,89.7
2023-03-06T09:11:45.773Z,89.7
2023-03-06T09:13:02.016Z,89.9
2023-03-06T09:14:17.286Z,90
2023-03-06T09:15:33.506Z,89.7
2023-03-06T09:16:49.750Z,89.5
2023-03-06T09:18:05.000Z,89.6
2023-03-06T09:19:22.232Z,89.6
2023-03-06T09:20:38.473Z,89.8
2023-03-06T09:21:54.725Z,89.9
2023-03-06T09:23:10.952Z,89.8
2023-03-06T09:24:27.200Z,89.7
2023-03-06T09:25:43.430Z,89.4
2023-03-06T09:26:59.678Z,89.4
2023-03-06T09:28:15.904Z,89
2023-03-06T09:29:32.144Z,88.6
2023-03-06T09:30:48.402Z,88.6
2023-03-06T09:32:03.644Z,88.4
2023-03-06T09:33:19.901Z,88.4
2023-03-06T09:34:36.122Z,88.6
2023-03-06T09:35:52.363Z,87.7
2023-03-06T09:37:08.606Z,88.1
2023-03-06T09:38:24.848Z,88.6
2023-03-06T09:39:41.084Z,88.9
2023-03-06T09:40:57.328Z,88.6
2023-03-06T09:42:13.563Z,87.8
2023-03-06T09:43:29.817Z,87.9
2023-03-06T09:44:46.042Z,87.8
2023-03-06T09:46:02.291Z,87.4
2023-03-06T09:47:18.539Z,87.2
2023-03-06T09:48:33.790Z,88
2023-03-06T09:49:50.026Z,88
2023-03-06T09:51:06.263Z,87.8
2023-03-06T09:52:22.496Z,87.7
2023-03-06T09:53:38.739Z,87.4
2023-03-06T09:54:54.981Z,86.7
2023-03-06T09:56:11.229Z,86.4
2023-03-06T09:57:27.455Z,86.3
2023-03-06T09:58:43.695Z,85.8
2023-03-06T09:59:59.945Z,85.4
2023-03-06T10:01:16.184Z,85.3
2023-03-06T10:02:32.419Z,84.8
2023-03-06T10:03:48.660Z,85.4
2023-03-06T10:05:03.913Z,84.9
2023-03-06T10:06:20.159Z,85.2
2023-03-06T10:07:36.401Z,85.5
2023-03-06T10:08:52.648Z,85.2
2023-03-06T10:10:08.872Z,84.8
2023-03-06T10:11:25.111Z,84
2023-03-06T10:12:41.353Z,84.5
2023-03-06T10:13:57.601Z,83.4
2023-03-06T10:15:13.827Z,83.5
2023-03-06T10:16:30.064Z,83.1
2023-03-06T10:17:46.306Z,83
2023-03-06T10:19:02.000Z,82.6
2023-03-06T10:20:18.794Z,82.9
2023-03-06T10:21:34.053Z,83.6
2023-03-06T10:22:50.287Z,83.7
2023-03-06T10:24:06.541Z,82.9
2023-03-06T10:25:22.788Z,83.4
2023-03-06T10:26:39.015Z,83.4
2023-03-06T10:27:55.253Z,83.4
2023-03-06T10:29:11.493Z,83.6
2023-03-06T10:30:27.745Z,83
2023-03-06T10:31:43.978Z,81.8
2023-03-06T10:33:00.217Z,81.3
2023-03-06T10:34:16.454Z,81.6
2023-03-06T10:35:32.699Z,82.1
2023-03-06T10:36:48.934Z,81.6
2023-03-06T10:38:04.192Z,81.4
2023-03-06T10:39:20.440Z,80.7
2023-03-06T10:40:36.674Z,80.6
2023-03-06T10:41:52.912Z,80.4
2023-03-06T10:43:09.151Z,79.9
2023-03-06T10:44:25.387Z,80.4
2023-03-06T10:45:41.628Z,80.2
2023-03-06T10:46:57.877Z,79.7
2023-03-06T10:48:14.117Z,79.6
2023-03-06T10:49:30.354Z,80.1
2023-03-06T10:50:46.587Z,80.5
2023-03-06T10:52:02.840Z,80.3
2023-03-06T10:53:19.071Z,79
2023-03-06T10:54:34.323Z,78.7
2023-03-06T10:55:50.567Z,78.9
2023-03-06T10:57:06.810Z,78.6
2023-03-06T10:58:23.051Z,79
2023-03-06T10:59:39.283Z,79.6
2023-03-06T11:00:55.529Z,79
2023-03-06T11:02:11.761Z,78.8
2023-03-06T11:03:28.009Z,79.7
2023-03-06T11:04:44.243Z,80.2
2023-03-06T11:06:00.480Z,81.2
2023-03-06T11:07:16.717Z,81.1
2023-03-06T11:08:32.967Z,81.2
2023-03-06T11:09:49.220Z,80.1
2023-03-06T11:11:04.455Z,78.9
2023-03-06T11:12:20.711Z,79.6
2023-03-06T11:13:36.943Z,77.9
2023-03-06T11:14:53.182Z,78.5
2023-03-06T11:16:09.415Z,78.2
2023-03-06T11:17:25.670Z,78.7
2023-03-06T11:18:41.903Z,79.2
2023-03-06T11:19:58.150Z,78.6
2023-03-06T11:21:14.375Z,78.7
2023-03-06T11:22:30.618Z,79
2023-03-06T11:23:46.864Z,78.9
2023-03-06T11:25:03.100Z,77.7
2023-03-06T11:26:19.332Z,78.7
2023-03-06T11:27:34.601Z,79.7
2023-03-06T11:28:50.841Z,79.7
2023-03-06T11:30:07.080Z,80
2023-03-06T11:31:23.326Z,80.9
2023-03-06T11:32:39.549Z,81.8
2023-03-06T11:33:55.800Z,82.5
2023-03-06T11:35:12.037Z,83.2
2023-03-06T11:36:28.284Z,83.2
2023-03-06T11:37:44.509Z,82.7
2023-03-06T11:39:00.749Z,81.6
2023-03-06T11:40:16.997Z,81.2
2023-03-06T11:41:33.246Z,81
2023-03-06T11:42:49.470Z,79.6
2023-03-06T11:44:04.728Z,79.7
2023-03-06T11:45:20.974Z,78.8
2023-03-06T11:46:37.223Z,78.4
2023-03-06T11:47:53.450Z,77.6
2023-03-06T11:49:09.689Z,77.8
2023-03-06T11:50:25.933Z,76.7
2023-03-06T11:51:42.167Z,77.8
2023-03-06T11:52:58.409Z,77.6
2023-03-06T11:54:14.659Z,77.2
2023-03-06T11:55:30.893Z,77.5
2023-03-06T11:56:47.129Z,76.9
2023-03-06T11:58:03.373Z,76.9
2023-03-06T11:59:19.609Z,76.8
2023-03-06T12:00:34.879Z,75.6
2023-03-06T12:01:51.106Z,75.4
2023-03-06T12:03:07.353Z,76.5
2023-03-06T12:04:23.594Z,76.8
2023-03-06T12:05:39.827Z,76.7
2023-03-06T12:06:56.067Z,77
2023-03-06T12:08:12.297Z,77.3
2023-03-06T12:09:28.545Z,78.2
2023-03-06T12:10:44.792Z,78.3
2023-03-06T12:12:01.031Z,78.7
2023-03-06T12:13:17.265Z,79.2
2023-03-06T12:14:33.492Z,79
2023-03-06T12:15:49.743Z,79
2023-03-06T12:17:04.994Z,79.6
2023-03-06T12:18:21.238Z,79.7
2023-03-06T12:19:37.486Z,79.3
2023-03-06T12:20:53.705Z,79.1
2023-03-06T12:22:09.952Z,79.4
2023-03-06T12:23:26.193Z,79.5
2023-03-06T12:24:42.445Z,80.8
2023-03-06T12:25:58.677Z,80.7
2023-03-06T12:27:14.913Z,81
2023-03-06T12:28:31.163Z,81
2023-03-06T12:29:47.393Z,81
2023-03-06T12:31:03.647Z,80.6
2023-03-06T12:32:19.880Z,80.9
2023-03-06T12:33:36.108Z,81.1
2023-03-06T12:34:51.366Z,81.3
2023-03-06T12:36:07.611Z,82.6
2023-03-06T12:37:23.849Z,83.5
2023-03-06T12:38:40.097Z,82.4
2023-03-06T12:39:56.321Z,82.4
2023-03-06T12:41:12.569Z,82.7
2023-03-06T12:42:28.801Z,82.7
2023-03-06T12:43:45.050Z,82.7
2023-03-06T12:45:01.284Z,83.1
2023-03-06T12:46:17.537Z,83.1
2023-03-06T12:47:33.767Z,82.3
2023-03-06T12:48:50.008Z,81.9
2023-03-06T12:50:06.256Z,83.2
2023-03-06T12:51:21.497Z,82.7
2023-03-06T12:52:37.754Z,83.2
2023-03-06T12:53:53.981Z,82.6
2023-03-06T12:55:10.227Z,82.5
2023-03-06T12:56:26.462Z,82.7
2023-03-06T12:57:42.700Z,84.2
2023-03-06T12:58:58.938Z,83.4
2023-03-06T13:00:15.182Z,84.4
2023-03-06T13:01:31.423Z,84.1
2023-03-06T13:02:47.669Z,84.6
2023-03-06T13:04:03.902Z,84.6
2023-03-06T13:05:20.140Z,84.1
2023-03-06T13:06:36.379Z,84.2
2023-03-06T13:07:51.644Z,85.5
2023-03-06T13:09:07.872Z,86.6
2023-03-06T13:10:24.111Z,89.7
2023-03-06T13:11:40.354Z,91.4
2023-03-06T13:12:56.601Z,92.8
2023-03-06T13:14:12.837Z,93.2
2023-03-06T13:15:29.079Z,93.6
2023-03-06T13:16:45.312Z,93.8
2023-03-06T13:18:01.552Z,94.1
2023-03-06T13:19:17.803Z,94.7
2023-03-06T13:20:34.031Z,94.4
2023-03-06T13:21:50.271Z,94.3
2023-03-06T13:23:06.519Z,93.7
2023-03-06T13:24:21.771Z,93.5
2023-03-06T13:25:38.008Z,93
2023-03-06T13:26:54.253Z,93.3
2023-03-06T13:28:10.505Z,92.8
2023-03-06T13:29:26.736Z,92.4
2023-03-06T13:30:42.970Z,92.4
2023-03-06T13:31:59.209Z,91.2
2023-03-06T13:33:15.465Z,91.6
2023-03-06T13:34:31.693Z,92
2023-03-06T13:35:47.946Z,92
2023-03-06T13:37:04.174Z,90.6
2023-03-06T13:38:20.410Z,90.7
2023-03-06T13:39:36.649Z,89.4
2023-03-06T13:40:51.917Z,89
2023-03-06T13:42:08.151Z,87.1
2023-03-06T13:43:24.390Z,86.7
2023-03-06T13:44:40.626Z,86.5
2023-03-06T13:45:56.871Z,86.5
2023-03-06T13:47:13.119Z,86.6
2023-03-06T13:48:29.357Z,87.4
2023-03-06T13:49:45.584Z,86.6
2023-03-06T13:51:01.839Z,86.1
2023-03-06T13:52:18.073Z,86.7
2023-03-06T13:53:34.305Z,87.3
2023-03-06T13:54:50.555Z,88.1
2023-03-06T13:56:06.789Z,88.3
2023-03-06T13:57:22.052Z,89
2023-03-06T13:58:38.280Z,89.4
2023-03-06T13:59:54.534Z,89.8
2023-03-06T14:01:10.759Z,89.9
2023-03-06T14:02:26.998Z,90.8
2023-03-06T14:03:43.240Z,90.9
2023-03-06T14:04:59.491Z,91.9
2023-03-06T14:06:15.725Z,92.7
2023-03-06T14:07:31.955Z,92.8
2023-03-06T14:08:48.210Z,92.8
2023-03-06T14:10:04.448Z,93.2
2023-03-06T14:11:20.684Z,93.6
2023-03-06T14:12:36.930Z,93.7
2023-03-06T14:13:52.172Z,93.5
2023-03-06T14:15:08.427Z,93.2
2023-03-06T14:16:24.663Z,93.1
2023-03-06T14:17:40.899Z,92.9
2023-03-06T14:18:57.132Z,92.9
2023-03-06T14:20:13.376Z,92.9
2023-03-06T14:21:29.612Z,93
2023-03-06T14:22:45.858Z,93.4
2023-03-06T14:24:02.095Z,93.1
2023-03-06T14:25:18.336Z,92.8
2023-03-06T14:26:34.574Z,93
2023-03-06T14:27:50.823Z,93
2023-03-06T14:29:07.055Z,92.8
2023-03-06T14:30:22.312Z,92.8
2023-03-06T14:31:38.551Z,92.2
2023-03-06T14:32:54.791Z,92.3
2023-03-06T14:34:11.028Z,92.5
2023-03-06T14:35:27.272Z,92
2023-03-06T14:36:42.542Z,92
2023-03-06T14:37:58.775Z,91.8
2023-03-06T14:39:15.012Z,92.2
2023-03-06T14:40:31.265Z,91.9
2023-03-06T14:41:47.499Z,91.6
2023-03-06T14:43:03.731Z,91.4
2023-03-06T14:44:19.975Z,91.2
2023-03-06T14:45:36.209Z,91.1
2023-03-06T14:46:52.464Z,90.2
2023-03-06T14:48:08.690Z,89.4
2023-03-06T14:49:24.929Z,89
2023-03-06T14:50:41.185Z,89.4
2023-03-06T14:51:57.409Z,89.6
2023-03-06T14:53:12.668Z,89
2023-03-06T14:54:28.904Z,89
2023-03-06T14:55:45.147Z,88.5
2023-03-06T14:57:01.382Z,88.6
2023-03-06T14:58:17.629Z,87.9
2023-03-06T14:59:33.867Z,87.9
2023-03-06T15:00:50.118Z,88.6
2023-03-06T15:02:06.339Z,88.7
2023-03-06T15:03:22.579Z,88.1
2023-03-06T15:04:38.821Z,88.1
2023-03-06T15:05:55.063Z,88.6
2023-03-06T15:07:11.307Z,87.9
2023-03-06T15:08:27.553Z,88.3
2023-03-06T15:09:42.794Z,88.2
2023-03-06T15:10:59.054Z,87.3
2023-03-06T15:12:15.275Z,86.8
2023-03-06T15:13:31.520Z,87.4
2023-03-06T15:14:47.752Z,86.7
2023-03-06T15:16:03.998Z,86.8
2023-03-06T15:17:20.242Z,86.9
2023-03-06T15:18:36.475Z,87.3
2023-03-06T15:19:52.710Z,87.3
2023-03-06T15:21:08.953Z,86.5
2023-03-06T15:22:25.196Z,87
2023-03-06T15:23:41.431Z,86.7
2023-03-06T15:24:57.675Z,87.2
2023-03-06T15:26:12.929Z,87
2023-03-06T15:27:29.165Z,86.7
2023-03-06T15:28:45.405Z,86.2
2023-03-06T15:30:01.646Z,86.8
2023-03-06T15:31:17.891Z,86.5
2023-03-06T15:32:34.131Z,87
2023-03-06T15:33:50.368Z,87.8
2023-03-06T15:35:06.604Z,88.2
2023-03-06T15:36:22.853Z,87.4
2023-03-06T15:37:39.086Z,87.2
2023-03-06T15:38:55.324Z,86.9
2023-03-06T15:40:11.576Z,87.4
2023-03-06T15:41:27.814Z,87.4
2023-03-06T15:42:43.058Z,87.2
2023-03-06T15:43:59.309Z,87.6
2023-03-06T15:45:15.545Z,87.8
2023-03-06T15:46:31.785Z,88.2
2023-03-06T15:47:48.033Z,87.9
2023-03-06T15:49:04.279Z,87.8
2023-03-06T15:50:20.501Z,88.1
2023-03-06T15:51:36.745Z,88.8
2023-03-06T15:52:53.008Z,89.1
2023-03-06T15:54:09.253Z,88.8
2023-03-06T15:55:25.495Z,88.6
2023-03-06T15:56:41.730Z,88.8
2023-03-06T15:57:57.976Z,89.1
2023-03-06T15:59:13.236Z,89.4
2023-03-06T16:00:29.470Z,89.7
2023-03-06T16:01:45.702Z,89.9
2023-03-06T16:03:01.943Z,90
2023-03-06T16:04:18.183Z,89.5
2023-03-06T16:05:34.426Z,89.5
2023-03-06T16:06:50.667Z,89.7
2023-03-06T16:08:06.906Z,89.9
2023-03-06T16:09:23.150Z,90.5
2023-03-06T16:10:39.380Z,90.2
2023-03-06T16:11:55.623Z,90.4
2023-03-06T16:13:11.862Z,90.1
2023-03-06T16:14:28.120Z,90.8
2023-03-06T16:15:43.361Z,90.1
2023-03-06T16:16:59.612Z,89.6
2023-03-06T16:18:15.842Z,89.7
2023-03-06T16:19:32.078Z,89.9
2023-03-06T16:20:48.316Z,90.4
2023-03-06T16:22:04.565Z,90.8
2023-03-06T16:23:20.805Z,91
2023-03-06T16:24:37.037Z,90.7
2023-03-06T16:25:53.282Z,90.6
2023-03-06T16:27:09.517Z,91
2023-03-06T16:28:25.753Z,91.3
2023-03-06T16:29:42.010Z,91.5
2023-03-06T16:30:58.238Z,92
2023-03-06T16:32:13.494Z,92.3
2023-03-06T16:33:29.742Z,92.9
2023-03-06T16:34:45.973Z,93
2023-03-06T16:36:02.214Z,92.9
2023-03-06T16:37:18.460Z,92.8
2023-03-06T16:38:34.707Z,93
2023-03-06T16:39:50.949Z,93
2023-03-06T16:41:07.180Z,93.1
2023-03-06T16:42:23.412Z,93.2
2023-03-06T16:43:39.657Z,93.5
2023-03-06T16:44:55.890Z,93.8
2023-03-06T16:46:12.136Z,94
2023-03-06T16:47:28.387Z,94
2023-03-06T16:48:43.629Z,93.9
2023-03-06T16:49:59.880Z,93.9
2023-03-06T16:51:16.108Z,94.1
2023-03-06T16:52:32.352Z,94.2
2023-03-06T16:53:48.591Z,94.4
2023-03-06T16:55:04.847Z,94.7
2023-03-06T16:56:21.087Z,94.9
2023-03-06T16:57:37.310Z,94.9
2023-03-06T16:58:53.549Z,94.9
2023-03-06T17:00:09.795Z,95